Wenonah, NJ

12:39 AM EDT on August 21, 2014 (GMT -0400)
South Jersey Regional | Change Station
CLOSE
Current Station
Airport
Location: Mount Holly,
Elevation: 52 ft
Nearby Weather Stations

Elev 52 ft 39.94 °N, 74.84 °W | Updated 45 minutes ago

Overcast
Overcast
67 °F
Feels Like 67 °F
N
0
Wind Variable Wind from North

Today
High -- | Low -- °F
--% Chance of Precip.
Yesterday
High -- | Low -- °F
Precip. -- in
6:18 AM 7:48 PM
Waning Crescent, 17% visible
Pressure 30.04 in
Visibility 10.0 miles
Clouds Scattered Clouds 6000 ft
Mostly Cloudy 7000 ft
Overcast 10000 ft
Dew Point 63 °F
Humidity 87%
Rainfall 0.00 in
Snow Depth Not available.
UV 0 out of 12
Pollen 9.50 out of 12
Ozone Good
PM2.5 Good
Flu Activity Not available.
METAR KVAY 210354Z AUTO 00000KT 10SM SCT060 BKN070 OVC100 19/17 A3004 RMK AO2 SLP172 T01940172

More Conditions Fewer Conditions

Pressure 30.04 in
Visibility 10.0 miles
Clouds Scattered Clouds 6000 ft
Mostly Cloudy 7000 ft
Overcast 10000 ft
Dew Point 63 °F
Humidity 87%
Rainfall 0.00 in
Snow Depth Not available.
UV 0 out of 12
Pollen 9.50 out of 12
Ozone Good
PM2.5 Good
Flu Activity Not available.
METAR KVAY 210354Z AUTO 00000KT 10SM SCT060 BKN070 OVC100 19/17 A3004 RMK AO2 SLP172 T01940172

More Conditions Fewer Conditions

10-Day Weather Forecast

Almanac

Astronomy

Aug. 21, 2014 Rise Set
Actual Time 6:18 AM EDT 7:48 PM EDT
Civil Twilight 5:49 AM EDT 8:16 PM EDT
Nautical Twilight 5:15 AM EDT 8:50 PM EDT
Astronomical Twilight 4:39 AM EDT 9:27 PM EDT
Moon 2:46 AM EDT 5:15 PM EDT
Length of Visible Light 14h 27m
Length of Day
13h 30m
Tomorrow will be 2m 24s shorter.
Waning Crescent, 17% of the Moon is Illuminated
Today
Waning Crescent
Aug 25
New
Sep 2
First Quarter
Sep 8
Full
Sep 15
Last Quarter

Yesterday's Extremes

State Highs State Lows

Community

WunderPhotos

Upload Photos

1,745,854 photos uploaded!

Nearby

Air Quality

  Air Quality AQ Index Pollutant
Yesterday Moderate
PM2.5
Yesterday Good
OZONE
Current Good
PM2.5
Current Good
OZONE
Wednesday Moderate
OZONE
Wednesday Good
PM2.5
Thursday Good
PM2.5
Thursday Good
OZONE
Friday Good
PM2.5
Friday Good
OZONE
Saturday Good
PM2.5
Saturday Good
OZONE

Snow Depth

Station Depth Elevation
No new snow has been reported.

Earthquake Activity

City Distance Mag. Time & Date
No recent earthquake activity has been reported nearby.
Minimum magnitude displayed is 2.5.

Coastal Water Temperatures

Place Temperature
Ship John Shoal, NJ 77.0 °F
Cape May, NJ 80.1 °F
Reedy Point, DE 79.0 °F
Delaware City, DE 78.1 °F
Marcus Hook, PA 78.1 °F

Nearby Weather Stations